KMGE/MGE METAR and TAF weather

Enter ICAO airport designator
Station Type Date Time Source
KMGE METAR 2020/09/28 09:56 UTC NOAA

KMGE 280956Z AUTO 20004KT 10SM OVC008 20/20 A2992 RMK AO2 DZB23E32RAB34E43 SLP124 P0000 T02020195 $


Station Type Date Time Source
KMGE Decoded METAR 2020/09/28 09:56 UTC NOAA

Marietta / Dobbins Air Force Base, GA, United States (KMGE) 33-55N 084-31W 326M
Sep 28, 2020 - 05:56 AM EDT / 2020.09.28 0956 UTC
Wind: from the SSW (200 degrees) at 5 MPH (4 KT):0
Visibility: 10 mile(s):0
Sky conditions: overcast
Precipitation last hour: A trace
Temperature: 68.4 F (20.2 C)
Dew Point: 67.1 F (19.5 C)
Relative Humidity: 95%
Pressure (altimeter): 29.92 in. Hg (1013 hPa)
ob: KMGE 280956Z AUTO 20004KT 10SM OVC008 20/20 A2992 RMK AO2 DZB23E32RAB34E43 SLP124 P0000 T02020195
cycle: 10

Station Type Date Time Source
KMGE TAF 2020/09/28 08:43 UTC NOAA

TAF
AMD KMGE 280833Z 2808/2911 20006KT 9999 FEW006 OVC010 QNH2991INS
BECMG 2810/2811 20006KT 9999 BKN006 OVC010 QNH2991INS
BECMG 2813/2814 21006KT 8000 -SHRA BKN008 QNH2991INS
BECMG 2815/2816 21010G15KT 8000 -SHRA BKN020 QNH2991INS
BECMG 2817/2818 20012G18KT 9999 SCT030 QNH2990INS
BECMG 2823/2824 18006KT 9999 BKN040 QNH2983INS
BECMG 2902/2903 24009KT 8000 -SHRA OVC010 QNH2985INS
TEMPO 2903/2906 30015G20KT -TSRA OVC008 TX27/2818Z TN20/2810Z

Example: see airport list